sensor_id;sensor_type;location;lat;lon;timestamp;P1;P2;P0
53658;PMS5003;41524;35.624;139.698;2023-04-15T00:00:14;7.00;7.00;
53658;PMS5003;41524;35.624;139.698;2023-04-15T00:05:08;5.00;5.00;
53658;PMS5003;41524;35.624;139.698;2023-04-15T00:10:13;7.00;6.00;
53658;PMS5003;41524;35.624;139.698;2023-04-15T00:15:14;4.00;4.00;
53658;PMS5003;41524;35.624;139.698;2023-04-15T00:20:14;5.00;5.00;
53658;PMS5003;41524;35.624;139.698;2023-04-15T00:25:14;16.00;15.00;
53658;PMS5003;41524;35.624;139.698;2023-04-15T00:30:14;7.00;5.00;
53658;PMS5003;41524;35.624;139.698;2023-04-15T00:35:09;9.00;8.00;
53658;PMS5003;41524;35.624;139.698;2023-04-15T00:40:10;8.00;8.00;
53658;PMS5003;41524;35.624;139.698;2023-04-15T00:45:09;6.00;6.00;
53658;PMS5003;41524;35.624;139.698;2023-04-15T00:50:14;9.00;8.00;
53658;PMS5003;41524;35.624;139.698;2023-04-15T00:55:09;12.00;12.00;
53658;PMS5003;41524;35.624;139.698;2023-04-15T01:00:09;10.00;8.00;
53658;PMS5003;41524;35.624;139.698;2023-04-15T01:05:09;11.00;8.00;
53658;PMS5003;41524;35.624;139.698;2023-04-15T01:10:18;8.00;8.00;
53658;PMS5003;41524;35.624;139.698;2023-04-15T01:15:10;19.00;16.00;
53658;PMS5003;41524;35.624;139.698;2023-04-15T01:20:09;14.00;11.00;
53658;PMS5003;41524;35.624;139.698;2023-04-15T01:25:16;11.00;8.00;
53658;PMS5003;41524;35.624;139.698;2023-04-15T01:30:09;13.00;11.00;
53658;PMS5003;41524;35.624;139.698;2023-04-15T01:35:14;8.00;8.00;
53658;PMS5003;41524;35.624;139.698;2023-04-15T01:40:08;8.00;7.00;
53658;PMS5003;41524;35.624;139.698;2023-04-15T01:45:14;24.00;13.00;
53658;PMS5003;41524;35.624;139.698;2023-04-15T01:50:09;8.00;7.00;
53658;PMS5003;41524;35.624;139.698;2023-04-15T01:55:09;12.00;8.00;
53658;PMS5003;41524;35.624;139.698;2023-04-15T02:00:09;10.00;10.00;
53658;PMS5003;41524;35.624;139.698;2023-04-15T02:05:10;10.00;8.00;
53658;PMS5003;41524;35.624;139.698;2023-04-15T02:10:09;17.00;12.00;
53658;PMS5003;41524;35.624;139.698;2023-04-15T02:15:10;16.00;15.00;
53658;PMS5003;41524;35.624;139.698;2023-04-15T02:20:18;16.00;15.00;
53658;PMS5003;41524;35.624;139.698;2023-04-15T02:25:09;19.00;17.00;
53658;PMS5003;41524;35.624;139.698;2023-04-15T02:30:08;20.00;20.00;
53658;PMS5003;41524;35.624;139.698;2023-04-15T02:35:10;22.00;18.00;
53658;PMS5003;41524;35.624;139.698;2023-04-15T02:40:14;20.00;20.00;
53658;PMS5003;41524;35.624;139.698;2023-04-15T02:45:10;30.00;26.00;
53658;PMS5003;41524;35.624;139.698;2023-04-15T02:50:15;21.00;21.00;
53658;PMS5003;41524;35.624;139.698;2023-04-15T02:55:14;23.00;21.00;
53658;PMS5003;41524;35.624;139.698;2023-04-15T03:00:08;29.00;23.00;
53658;PMS5003;41524;35.624;139.698;2023-04-15T03:05:11;28.00;27.00;
53658;PMS5003;41524;35.624;139.698;2023-04-15T03:10:09;24.00;21.00;
53658;PMS5003;41524;35.624;139.698;2023-04-15T03:15:09;21.00;19.00;
53658;PMS5003;41524;35.624;139.698;2023-04-15T03:20:16;24.00;21.00;
53658;PMS5003;41524;35.624;139.698;2023-04-15T03:25:17;34.00;28.00;
53658;PMS5003;41524;35.624;139.698;2023-04-15T03:30:09;36.00;31.00;
53658;PMS5003;41524;35.624;139.698;2023-04-15T03:35:16;29.00;26.00;
53658;PMS5003;41524;35.624;139.698;2023-04-15T03:40:10;36.00;35.00;
53658;PMS5003;41524;35.624;139.698;2023-04-15T03:45:10;29.00;24.00;
53658;PMS5003;41524;35.624;139.698;2023-04-15T03:50:14;21.00;18.00;
53658;PMS5003;41524;35.624;139.698;2023-04-15T03:55:09;20.00;18.00;
53658;PMS5003;41524;35.624;139.698;2023-04-15T04:00:11;13.00;12.00;
53658;PMS5003;41524;35.624;139.698;2023-04-15T04:05:11;15.00;11.00;
53658;PMS5003;41524;35.624;139.698;2023-04-15T04:10:09;9.00;9.00;
53658;PMS5003;41524;35.624;139.698;2023-04-15T04:15:09;9.00;8.00;
53658;PMS5003;41524;35.624;139.698;2023-04-15T04:20:14;10.00;9.00;
53658;PMS5003;41524;35.624;139.698;2023-04-15T04:25:09;7.00;7.00;
53658;PMS5003;41524;35.624;139.698;2023-04-15T04:30:14;9.00;9.00;
53658;PMS5003;41524;35.624;139.698;2023-04-15T04:35:13;14.00;10.00;
53658;PMS5003;41524;35.624;139.698;2023-04-15T04:40:09;10.00;10.00;
53658;PMS5003;41524;35.624;139.698;2023-04-15T04:45:15;12.00;12.00;
53658;PMS5003;41524;35.624;139.698;2023-04-15T04:50:09;10.00;10.00;
53658;PMS5003;41524;35.624;139.698;2023-04-15T04:55:16;12.00;11.00;
53658;PMS5003;41524;35.624;139.698;2023-04-15T05:00:14;13.00;12.00;
53658;PMS5003;41524;35.624;139.698;2023-04-15T05:05:13;12.00;11.00;
53658;PMS5003;41524;35.624;139.698;2023-04-15T05:10:13;12.00;12.00;
53658;PMS5003;41524;35.624;139.698;2023-04-15T05:15:14;10.00;10.00;
53658;PMS5003;41524;35.624;139.698;2023-04-15T05:20:14;15.00;15.00;
53658;PMS5003;41524;35.624;139.698;2023-04-15T05:25:09;9.00;9.00;
53658;PMS5003;41524;35.624;139.698;2023-04-15T05:30:10;6.00;6.00;
53658;PMS5003;41524;35.624;139.698;2023-04-15T05:35:09;12.00;10.00;
53658;PMS5003;41524;35.624;139.698;2023-04-15T05:40:09;10.00;10.00;
53658;PMS5003;41524;35.624;139.698;2023-04-15T05:45:13;13.00;13.00;
53658;PMS5003;41524;35.624;139.698;2023-04-15T05:50:10;13.00;12.00;
53658;PMS5003;41524;35.624;139.698;2023-04-15T05:55:09;10.00;10.00;
53658;PMS5003;41524;35.624;139.698;2023-04-15T06:00:09;15.00;14.00;
53658;PMS5003;41524;35.624;139.698;2023-04-15T06:05:09;14.00;12.00;
53658;PMS5003;41524;35.624;139.698;2023-04-15T06:10:09;8.00;8.00;
53658;PMS5003;41524;35.624;139.698;2023-04-15T06:15:10;8.00;7.00;
53658;PMS5003;41524;35.624;139.698;2023-04-15T06:20:11;7.00;7.00;
53658;PMS5003;41524;35.624;139.698;2023-04-15T06:25:08;6.00;4.00;
53658;PMS5003;41524;35.624;139.698;2023-04-15T06:30:09;15.00;15.00;
53658;PMS5003;41524;35.624;139.698;2023-04-15T06:35:13;12.00;11.00;
53658;PMS5003;41524;35.624;139.698;2023-04-15T06:40:11;13.00;9.00;
53658;PMS5003;41524;35.624;139.698;2023-04-15T06:45:15;8.00;7.00;
53658;PMS5003;41524;35.624;139.698;2023-04-15T06:50:09;7.00;6.00;
53658;PMS5003;41524;35.624;139.698;2023-04-15T06:55:09;10.00;8.00;
53658;PMS5003;41524;35.624;139.698;2023-04-15T07:00:12;9.00;7.00;
53658;PMS5003;41524;35.624;139.698;2023-04-15T07:05:14;9.00;7.00;
53658;PMS5003;41524;35.624;139.698;2023-04-15T07:10:14;10.00;9.00;
53658;PMS5003;41524;35.624;139.698;2023-04-15T07:15:09;9.00;9.00;
53658;PMS5003;41524;35.624;139.698;2023-04-15T07:20:14;10.00;10.00;
53658;PMS5003;41524;35.624;139.698;2023-04-15T07:25:16;10.00;8.00;
53658;PMS5003;41524;35.624;139.698;2023-04-15T07:30:10;7.00;7.00;
53658;PMS5003;41524;35.624;139.698;2023-04-15T07:35:14;9.00;8.00;
53658;PMS5003;41524;35.624;139.698;2023-04-15T07:40:14;8.00;8.00;
53658;PMS5003;41524;35.624;139.698;2023-04-15T07:45:14;7.00;7.00;
53658;PMS5003;41524;35.624;139.698;2023-04-15T07:50:10;10.00;10.00;
53658;PMS5003;41524;35.624;139.698;2023-04-15T07:55:09;8.00;7.00;
53658;PMS5003;41524;35.624;139.698;2023-04-15T08:00:20;8.00;8.00;
53658;PMS5003;41524;35.624;139.698;2023-04-15T08:05:10;9.00;9.00;
53658;PMS5003;41524;35.624;139.698;2023-04-15T08:10:09;8.00;7.00;
53658;PMS5003;41524;35.624;139.698;2023-04-15T08:15:14;6.00;6.00;
53658;PMS5003;41524;35.624;139.698;2023-04-15T08:20:08;8.00;7.00;
53658;PMS5003;41524;35.624;139.698;2023-04-15T08:25:13;10.00;9.00;
53658;PMS5003;41524;35.624;139.698;2023-04-15T08:30:08;8.00;8.00;
53658;PMS5003;41524;35.624;139.698;2023-04-15T08:35:10;14.00;14.00;
53658;PMS5003;41524;35.624;139.698;2023-04-15T08:40:15;6.00;6.00;
53658;PMS5003;41524;35.624;139.698;2023-04-15T08:45:13;7.00;7.00;
53658;PMS5003;41524;35.624;139.698;2023-04-15T08:50:14;9.00;9.00;
53658;PMS5003;41524;35.624;139.698;2023-04-15T08:55:10;12.00;11.00;
53658;PMS5003;41524;35.624;139.698;2023-04-15T09:00:14;12.00;11.00;
53658;PMS5003;41524;35.624;139.698;2023-04-15T09:05:14;10.00;10.00;
53658;PMS5003;41524;35.624;139.698;2023-04-15T09:10:09;8.00;8.00;
53658;PMS5003;41524;35.624;139.698;2023-04-15T09:15:12;13.00;10.00;
53658;PMS5003;41524;35.624;139.698;2023-04-15T09:20:16;8.00;8.00;
53658;PMS5003;41524;35.624;139.698;2023-04-15T09:25:37;8.00;8.00;
53658;PMS5003;41524;35.624;139.698;2023-04-15T09:30:14;9.00;9.00;
53658;PMS5003;41524;35.624;139.698;2023-04-15T09:35:11;18.00;17.00;
53658;PMS5003;41524;35.624;139.698;2023-04-15T09:40:11;9.00;9.00;
53658;PMS5003;41524;35.624;139.698;2023-04-15T09:45:10;7.00;7.00;
53658;PMS5003;41524;35.624;139.698;2023-04-15T09:50:09;11.00;11.00;
53658;PMS5003;41524;35.624;139.698;2023-04-15T09:55:16;8.00;8.00;
53658;PMS5003;41524;35.624;139.698;2023-04-15T10:00:19;9.00;8.00;
53658;PMS5003;41524;35.624;139.698;2023-04-15T10:05:09;16.00;14.00;
53658;PMS5003;41524;35.624;139.698;2023-04-15T10:10:10;8.00;7.00;
53658;PMS5003;41524;35.624;139.698;2023-04-15T10:15:10;10.00;9.00;
53658;PMS5003;41524;35.624;139.698;2023-04-15T10:20:14;10.00;10.00;
53658;PMS5003;41524;35.624;139.698;2023-04-15T10:25:15;14.00;12.00;
53658;PMS5003;41524;35.624;139.698;2023-04-15T10:30:09;9.00;9.00;
53658;PMS5003;41524;35.624;139.698;2023-04-15T10:35:09;8.00;8.00;
53658;PMS5003;41524;35.624;139.698;2023-04-15T10:40:23;6.00;6.00;
53658;PMS5003;41524;35.624;139.698;2023-04-15T10:45:15;9.00;7.00;
53658;PMS5003;41524;35.624;139.698;2023-04-15T10:50:09;11.00;10.00;
53658;PMS5003;41524;35.624;139.698;2023-04-15T10:55:21;8.00;8.00;
53658;PMS5003;41524;35.624;139.698;2023-04-15T11:00:15;10.00;10.00;
53658;PMS5003;41524;35.624;139.698;2023-04-15T11:05:17;6.00;6.00;
53658;PMS5003;41524;35.624;139.698;2023-04-15T11:11:10;6.00;6.00;
53658;PMS5003;41524;35.624;139.698;2023-04-15T11:15:29;5.00;5.00;
53658;PMS5003;41524;35.624;139.698;2023-04-15T11:20:15;5.00;5.00;
53658;PMS5003;41524;35.624;139.698;2023-04-15T11:25:23;5.00;3.00;
53658;PMS5003;41524;35.624;139.698;2023-04-15T11:30:18;4.00;4.00;
53658;PMS5003;41524;35.624;139.698;2023-04-15T11:35:19;8.00;8.00;
53658;PMS5003;41524;35.624;139.698;2023-04-15T11:40:09;6.00;6.00;
53658;PMS5003;41524;35.624;139.698;2023-04-15T11:45:14;9.00;7.00;
53658;PMS5003;41524;35.624;139.698;2023-04-15T11:50:17;8.00;7.00;
53658;PMS5003;41524;35.624;139.698;2023-04-15T11:55:10;7.00;5.00;
53658;PMS5003;41524;35.624;139.698;2023-04-15T12:00:21;6.00;6.00;
53658;PMS5003;41524;35.624;139.698;2023-04-15T12:05:11;9.00;7.00;
53658;PMS5003;41524;35.624;139.698;2023-04-15T12:10:10;7.00;6.00;
53658;PMS5003;41524;35.624;139.698;2023-04-15T12:15:14;5.00;5.00;
53658;PMS5003;41524;35.624;139.698;2023-04-15T12:20:09;10.00;9.00;
53658;PMS5003;41524;35.624;139.698;2023-04-15T12:25:09;10.00;8.00;
53658;PMS5003;41524;35.624;139.698;2023-04-15T12:30:15;7.00;7.00;
53658;PMS5003;41524;35.624;139.698;2023-04-15T12:35:15;7.00;7.00;
53658;PMS5003;41524;35.624;139.698;2023-04-15T12:40:09;7.00;7.00;
53658;PMS5003;41524;35.624;139.698;2023-04-15T12:45:09;7.00;7.00;
53658;PMS5003;41524;35.624;139.698;2023-04-15T12:50:14;7.00;7.00;
53658;PMS5003;41524;35.624;139.698;2023-04-15T12:55:09;6.00;6.00;
53658;PMS5003;41524;35.624;139.698;2023-04-15T13:00:11;9.00;8.00;
53658;PMS5003;41524;35.624;139.698;2023-04-15T13:05:14;7.00;7.00;
53658;PMS5003;41524;35.624;139.698;2023-04-15T13:10:14;6.00;6.00;
53658;PMS5003;41524;35.624;139.698;2023-04-15T13:15:09;9.00;9.00;
53658;PMS5003;41524;35.624;139.698;2023-04-15T13:20:10;8.00;7.00;
53658;PMS5003;41524;35.624;139.698;2023-04-15T13:25:09;7.00;7.00;
53658;PMS5003;41524;35.624;139.698;2023-04-15T13:30:15;12.00;11.00;
53658;PMS5003;41524;35.624;139.698;2023-04-15T13:35:09;15.00;15.00;
53658;PMS5003;41524;35.624;139.698;2023-04-15T13:40:14;7.00;7.00;
53658;PMS5003;41524;35.624;139.698;2023-04-15T13:45:10;7.00;7.00;
53658;PMS5003;41524;35.624;139.698;2023-04-15T13:50:10;7.00;6.00;
53658;PMS5003;41524;35.624;139.698;2023-04-15T13:55:09;6.00;6.00;
53658;PMS5003;41524;35.624;139.698;2023-04-15T14:00:09;7.00;7.00;
53658;PMS5003;41524;35.624;139.698;2023-04-15T14:05:11;7.00;4.00;
53658;PMS5003;41524;35.624;139.698;2023-04-15T14:10:09;4.00;4.00;
53658;PMS5003;41524;35.624;139.698;2023-04-15T14:15:09;7.00;7.00;
53658;PMS5003;41524;35.624;139.698;2023-04-15T14:20:19;5.00;5.00;
53658;PMS5003;41524;35.624;139.698;2023-04-15T14:25:14;6.00;6.00;
53658;PMS5003;41524;35.624;139.698;2023-04-15T14:30:09;6.00;5.00;
53658;PMS5003;41524;35.624;139.698;2023-04-15T14:35:08;6.00;5.00;
53658;PMS5003;41524;35.624;139.698;2023-04-15T14:40:15;5.00;5.00;
53658;PMS5003;41524;35.624;139.698;2023-04-15T14:45:14;6.00;6.00;
53658;PMS5003;41524;35.624;139.698;2023-04-15T14:50:09;11.00;8.00;
53658;PMS5003;41524;35.624;139.698;2023-04-15T14:55:14;8.00;7.00;
53658;PMS5003;41524;35.624;139.698;2023-04-15T15:00:26;5.00;5.00;
53658;PMS5003;41524;35.624;139.698;2023-04-15T15:05:14;8.00;7.00;
53658;PMS5003;41524;35.624;139.698;2023-04-15T15:10:14;12.00;9.00;
53658;PMS5003;41524;35.624;139.698;2023-04-15T15:15:09;7.00;6.00;
53658;PMS5003;41524;35.624;139.698;2023-04-15T15:20:13;9.00;8.00;
53658;PMS5003;41524;35.624;139.698;2023-04-15T15:25:14;7.00;6.00;
53658;PMS5003;41524;35.624;139.698;2023-04-15T15:30:10;10.00;10.00;
53658;PMS5003;41524;35.624;139.698;2023-04-15T15:35:20;8.00;8.00;
53658;PMS5003;41524;35.624;139.698;2023-04-15T15:40:14;7.00;7.00;
53658;PMS5003;41524;35.624;139.698;2023-04-15T15:45:14;12.00;10.00;
53658;PMS5003;41524;35.624;139.698;2023-04-15T15:50:11;8.00;8.00;
53658;PMS5003;41524;35.624;139.698;2023-04-15T15:55:09;13.00;7.00;
53658;PMS5003;41524;35.624;139.698;2023-04-15T16:00:15;18.00;15.00;
53658;PMS5003;41524;35.624;139.698;2023-04-15T16:05:09;9.00;9.00;
53658;PMS5003;41524;35.624;139.698;2023-04-15T16:10:09;15.00;12.00;
53658;PMS5003;41524;35.624;139.698;2023-04-15T16:15:11;10.00;8.00;
53658;PMS5003;41524;35.624;139.698;2023-04-15T16:20:12;8.00;7.00;
53658;PMS5003;41524;35.624;139.698;2023-04-15T16:25:09;6.00;6.00;
53658;PMS5003;41524;35.624;139.698;2023-04-15T16:30:14;12.00;12.00;
53658;PMS5003;41524;35.624;139.698;2023-04-15T16:35:10;8.00;8.00;
53658;PMS5003;41524;35.624;139.698;2023-04-15T16:40:10;9.00;7.00;
53658;PMS5003;41524;35.624;139.698;2023-04-15T16:45:10;7.00;7.00;
53658;PMS5003;41524;35.624;139.698;2023-04-15T16:50:10;8.00;8.00;
53658;PMS5003;41524;35.624;139.698;2023-04-15T16:55:12;11.00;10.00;
53658;PMS5003;41524;35.624;139.698;2023-04-15T17:00:09;10.00;9.00;
53658;PMS5003;41524;35.624;139.698;2023-04-15T17:05:09;9.00;9.00;
53658;PMS5003;41524;35.624;139.698;2023-04-15T17:10:09;7.00;7.00;
53658;PMS5003;41524;35.624;139.698;2023-04-15T17:15:09;6.00;6.00;
53658;PMS5003;41524;35.624;139.698;2023-04-15T17:20:08;8.00;8.00;
53658;PMS5003;41524;35.624;139.698;2023-04-15T17:25:09;10.00;9.00;
53658;PMS5003;41524;35.624;139.698;2023-04-15T17:30:09;13.00;9.00;
53658;PMS5003;41524;35.624;139.698;2023-04-15T17:35:11;11.00;10.00;
53658;PMS5003;41524;35.624;139.698;2023-04-15T17:40:13;9.00;7.00;
53658;PMS5003;41524;35.624;139.698;2023-04-15T17:45:13;11.00;11.00;
53658;PMS5003;41524;35.624;139.698;2023-04-15T17:50:09;15.00;10.00;
53658;PMS5003;41524;35.624;139.698;2023-04-15T17:55:09;10.00;9.00;
53658;PMS5003;41524;35.624;139.698;2023-04-15T18:00:16;11.00;10.00;
53658;PMS5003;41524;35.624;139.698;2023-04-15T18:05:09;14.00;11.00;
53658;PMS5003;41524;35.624;139.698;2023-04-15T18:10:10;16.00;16.00;
53658;PMS5003;41524;35.624;139.698;2023-04-15T18:15:10;14.00;13.00;
53658;PMS5003;41524;35.624;139.698;2023-04-15T18:20:10;11.00;9.00;
53658;PMS5003;41524;35.624;139.698;2023-04-15T18:25:09;9.00;9.00;
53658;PMS5003;41524;35.624;139.698;2023-04-15T18:30:09;22.00;20.00;
53658;PMS5003;41524;35.624;139.698;2023-04-15T18:35:09;13.00;13.00;
53658;PMS5003;41524;35.624;139.698;2023-04-15T18:40:10;11.00;11.00;
53658;PMS5003;41524;35.624;139.698;2023-04-15T18:45:10;16.00;12.00;
53658;PMS5003;41524;35.624;139.698;2023-04-15T18:50:09;14.00;11.00;
53658;PMS5003;41524;35.624;139.698;2023-04-15T18:55:09;16.00;12.00;
53658;PMS5003;41524;35.624;139.698;2023-04-15T19:00:14;12.00;12.00;
53658;PMS5003;41524;35.624;139.698;2023-04-15T19:05:09;16.00;13.00;
53658;PMS5003;41524;35.624;139.698;2023-04-15T19:10:09;21.00;20.00;
53658;PMS5003;41524;35.624;139.698;2023-04-15T19:15:09;13.00;13.00;
53658;PMS5003;41524;35.624;139.698;2023-04-15T19:20:10;11.00;11.00;
53658;PMS5003;41524;35.624;139.698;2023-04-15T19:25:09;21.00;20.00;
53658;PMS5003;41524;35.624;139.698;2023-04-15T19:30:09;27.00;24.00;
53658;PMS5003;41524;35.624;139.698;2023-04-15T19:35:09;23.00;22.00;
53658;PMS5003;41524;35.624;139.698;2023-04-15T19:40:09;26.00;19.00;
53658;PMS5003;41524;35.624;139.698;2023-04-15T19:45:09;26.00;25.00;
53658;PMS5003;41524;35.624;139.698;2023-04-15T19:50:10;21.00;18.00;
53658;PMS5003;41524;35.624;139.698;2023-04-15T19:55:14;34.00;28.00;
53658;PMS5003;41524;35.624;139.698;2023-04-15T20:00:10;25.00;24.00;
53658;PMS5003;41524;35.624;139.698;2023-04-15T20:05:09;28.00;26.00;
53658;PMS5003;41524;35.624;139.698;2023-04-15T20:10:11;31.00;29.00;
53658;PMS5003;41524;35.624;139.698;2023-04-15T20:15:13;24.00;22.00;
53658;PMS5003;41524;35.624;139.698;2023-04-15T20:20:09;34.00;33.00;
53658;PMS5003;41524;35.624;139.698;2023-04-15T20:25:16;27.00;23.00;
53658;PMS5003;41524;35.624;139.698;2023-04-15T20:30:09;29.00;28.00;
53658;PMS5003;41524;35.624;139.698;2023-04-15T20:35:09;36.00;30.00;
53658;PMS5003;41524;35.624;139.698;2023-04-15T20:40:09;37.00;33.00;
53658;PMS5003;41524;35.624;139.698;2023-04-15T20:45:09;39.00;34.00;
53658;PMS5003;41524;35.624;139.698;2023-04-15T20:50:10;43.00;33.00;
53658;PMS5003;41524;35.624;139.698;2023-04-15T20:55:14;40.00;38.00;
53658;PMS5003;41524;35.624;139.698;2023-04-15T21:00:09;32.00;29.00;
53658;PMS5003;41524;35.624;139.698;2023-04-15T21:05:09;35.00;32.00;
53658;PMS5003;41524;35.624;139.698;2023-04-15T21:10:10;37.00;27.00;
53658;PMS5003;41524;35.624;139.698;2023-04-15T21:15:10;34.00;30.00;
53658;PMS5003;41524;35.624;139.698;2023-04-15T21:20:09;35.00;34.00;
53658;PMS5003;41524;35.624;139.698;2023-04-15T21:25:10;43.00;34.00;
53658;PMS5003;41524;35.624;139.698;2023-04-15T21:30:15;36.00;36.00;
53658;PMS5003;41524;35.624;139.698;2023-04-15T21:35:08;45.00;40.00;
53658;PMS5003;41524;35.624;139.698;2023-04-15T21:40:09;39.00;34.00;
53658;PMS5003;41524;35.624;139.698;2023-04-15T21:45:09;44.00;40.00;
53658;PMS5003;41524;35.624;139.698;2023-04-15T21:50:10;41.00;39.00;
53658;PMS5003;41524;35.624;139.698;2023-04-15T21:55:13;51.00;46.00;
53658;PMS5003;41524;35.624;139.698;2023-04-15T22:00:15;52.00;47.00;
53658;PMS5003;41524;35.624;139.698;2023-04-15T22:05:14;47.00;44.00;
53658;PMS5003;41524;35.624;139.698;2023-04-15T22:10:09;48.00;48.00;
53658;PMS5003;41524;35.624;139.698;2023-04-15T22:15:10;43.00;43.00;
53658;PMS5003;41524;35.624;139.698;2023-04-15T22:20:10;40.00;39.00;
53658;PMS5003;41524;35.624;139.698;2023-04-15T22:25:09;36.00;33.00;
53658;PMS5003;41524;35.624;139.698;2023-04-15T22:30:10;29.00;26.00;
53658;PMS5003;41524;35.624;139.698;2023-04-15T22:35:11;26.00;25.00;
53658;PMS5003;41524;35.624;139.698;2023-04-15T22:40:10;28.00;24.00;
53658;PMS5003;41524;35.624;139.698;2023-04-15T22:45:09;31.00;27.00;
53658;PMS5003;41524;35.624;139.698;2023-04-15T22:50:09;29.00;26.00;
53658;PMS5003;41524;35.624;139.698;2023-04-15T22:55:10;26.00;21.00;
53658;PMS5003;41524;35.624;139.698;2023-04-15T23:00:20;23.00;18.00;
53658;PMS5003;41524;35.624;139.698;2023-04-15T23:05:10;31.00;25.00;
53658;PMS5003;41524;35.624;139.698;2023-04-15T23:10:09;21.00;20.00;
53658;PMS5003;41524;35.624;139.698;2023-04-15T23:15:09;28.00;28.00;
53658;PMS5003;41524;35.624;139.698;2023-04-15T23:20:10;29.00;24.00;
53658;PMS5003;41524;35.624;139.698;2023-04-15T23:25:08;34.00;29.00;
53658;PMS5003;41524;35.624;139.698;2023-04-15T23:30:11;18.00;17.00;
53658;PMS5003;41524;35.624;139.698;2023-04-15T23:35:15;23.00;21.00;
53658;PMS5003;41524;35.624;139.698;2023-04-15T23:40:09;32.00;30.00;
53658;PMS5003;41524;35.624;139.698;2023-04-15T23:45:20;31.00;31.00;
53658;PMS5003;41524;35.624;139.698;2023-04-15T23:50:13;30.00;26.00;
53658;PMS5003;41524;35.624;139.698;2023-04-15T23:55:09;32.00;29.00;
